HAZ142 ZSHC-RJTT
Flight info
| Callsign | HAZ142 |
|---|---|
| Flight time | N/A |
| Altitude | 41100 |
| Route | OKTUG9D OKTUG B221 NINAS G327 LAMEN/N0486F410 A593 SADLI Y590 BEDAR Y591 FUE Y23 ARTIC Y71 XAC |
| Aircraft | A359/H-SDE2E3GHIJ3J4J5LM1ORWXY/LB1D1 |
Departure
| Time | N/A |
|---|---|
| Airport | Hangzhou Xiaoshan International Airport (ZSHC) |
Arrival
| Time | 2026-05-06 05:56 |
|---|---|
| Airport | Tokyo Haneda International Airport (RJTT) |
| Time | Latitude | Longitude | Altitude | Speed | Heading |
|---|---|---|---|---|---|
| 2026-05-06 03:43 | 30.23083 | 121.18092 | 14746 ft | 387 kts | 52° |
| 2026-05-06 03:43 | 30.24691 | 121.20604 | 15356 ft | 390 kts | 52° |
| 2026-05-06 03:43 | 30.26286 | 121.23159 | 15965 ft | 394 kts | 53° |
| 2026-05-06 03:44 | 30.27836 | 121.25793 | 16571 ft | 397 kts | 54° |
| 2026-05-06 03:44 | 30.29357 | 121.28477 | 17194 ft | 401 kts | 55° |
| 2026-05-06 03:44 | 30.30871 | 121.31199 | 17801 ft | 404 kts | 56° |
| 2026-05-06 03:44 | 30.32373 | 121.33910 | 18400 ft | 407 kts | 55° |
| 2026-05-06 03:45 | 30.33910 | 121.36673 | 18931 ft | 410 kts | 55° |
| 2026-05-06 03:45 | 30.35470 | 121.39460 | 19464 ft | 414 kts | 54° |
| 2026-05-06 03:45 | 30.37049 | 121.42257 | 20013 ft | 416 kts | 54° |
| 2026-05-06 03:45 | 30.38648 | 121.45067 | 20571 ft | 419 kts | 54° |
| 2026-05-06 03:46 | 30.40260 | 121.47895 | 21131 ft | 422 kts | 53° |
| 2026-05-06 03:46 | 30.41884 | 121.50741 | 21686 ft | 425 kts | 53° |
| 2026-05-06 03:46 | 30.43520 | 121.53612 | 22233 ft | 428 kts | 53° |
| 2026-05-06 03:46 | 30.45168 | 121.56506 | 22782 ft | 431 kts | 53° |
| 2026-05-06 03:47 | 30.46265 | 121.58437 | 23148 ft | 434 kts | 53° |
| 2026-05-06 03:47 | 30.48494 | 121.62361 | 23841 ft | 438 kts | 53° |
| 2026-05-06 03:47 | 30.50175 | 121.65327 | 24323 ft | 441 kts | 53° |
| 2026-05-06 03:47 | 30.51864 | 121.68308 | 24837 ft | 444 kts | 52° |
| 2026-05-06 03:48 | 30.52988 | 121.70293 | 25182 ft | 446 kts | 52° |
| 2026-05-06 03:48 | 30.54690 | 121.73302 | 25679 ft | 448 kts | 52° |
| 2026-05-06 03:48 | 30.56407 | 121.76340 | 26205 ft | 451 kts | 52° |
| 2026-05-06 03:48 | 30.58135 | 121.79398 | 26709 ft | 454 kts | 52° |
| 2026-05-06 03:49 | 30.59870 | 121.82471 | 27237 ft | 457 kts | 52° |
| 2026-05-06 03:49 | 30.61615 | 121.85564 | 27740 ft | 459 kts | 52° |
| 2026-05-06 03:49 | 30.63369 | 121.88676 | 28259 ft | 462 kts | 52° |
| 2026-05-06 03:49 | 30.65133 | 121.91809 | 28740 ft | 465 kts | 52° |
| 2026-05-06 03:50 | 30.66909 | 121.94963 | 29213 ft | 468 kts | 52° |
| 2026-05-06 03:50 | 30.68695 | 121.98140 | 29690 ft | 471 kts | 52° |
| 2026-05-06 03:50 | 30.70490 | 122.01335 | 30148 ft | 474 kts | 52° |
| 2026-05-06 03:50 | 30.72298 | 122.04555 | 30508 ft | 476 kts | 52° |
| 2026-05-06 03:51 | 30.74113 | 122.07789 | 30874 ft | 479 kts | 52° |
| 2026-05-06 03:51 | 30.75955 | 122.11032 | 31221 ft | 482 kts | 52° |
| 2026-05-06 03:51 | 30.77554 | 122.14421 | 31555 ft | 491 kts | 60° |
| 2026-05-06 03:51 | 30.78847 | 122.18131 | 31895 ft | 496 kts | 65° |
| 2026-05-06 03:52 | 30.79967 | 122.21947 | 32222 ft | 501 kts | 67° |
| 2026-05-06 03:52 | 30.80990 | 122.25824 | 32549 ft | 504 kts | 68° |
| 2026-05-06 03:52 | 30.81970 | 122.29739 | 32941 ft | 504 kts | 69° |
| 2026-05-06 03:52 | 30.82936 | 122.33653 | 33436 ft | 502 kts | 69° |
| 2026-05-06 03:53 | 30.83907 | 122.37548 | 33895 ft | 501 kts | 69° |
| 2026-05-06 03:53 | 30.84891 | 122.41430 | 34304 ft | 500 kts | 68° |
| 2026-05-06 03:53 | 30.85884 | 122.45297 | 34671 ft | 498 kts | 68° |
| 2026-05-06 03:53 | 30.86882 | 122.49153 | 35049 ft | 497 kts | 68° |
| 2026-05-06 03:54 | 30.87884 | 122.53006 | 35396 ft | 497 kts | 68° |
| 2026-05-06 03:54 | 30.88886 | 122.56855 | 35749 ft | 496 kts | 68° |
| 2026-05-06 03:54 | 30.89885 | 122.60695 | 36092 ft | 495 kts | 68° |
| 2026-05-06 03:54 | 30.90882 | 122.64536 | 36423 ft | 495 kts | 68° |
| 2026-05-06 03:55 | 30.91876 | 122.68373 | 36725 ft | 495 kts | 68° |
| 2026-05-06 03:55 | 30.92868 | 122.72210 | 37049 ft | 495 kts | 68° |
| 2026-05-06 03:55 | 30.93857 | 122.76041 | 37357 ft | 494 kts | 68° |
| 2026-05-06 03:55 | 30.94846 | 122.79880 | 37657 ft | 494 kts | 68° |
| 2026-05-06 03:56 | 30.95833 | 122.83716 | 37943 ft | 494 kts | 69° |
| 2026-05-06 03:56 | 30.96817 | 122.87546 | 38229 ft | 494 kts | 69° |
| 2026-05-06 03:56 | 30.97801 | 122.91381 | 38505 ft | 494 kts | 69° |
| 2026-05-06 03:56 | 30.98785 | 122.95211 | 38756 ft | 493 kts | 68° |
| 2026-05-06 03:57 | 30.99849 | 122.99008 | 38954 ft | 493 kts | 67° |
| 2026-05-06 03:57 | 31.00929 | 123.02806 | 39122 ft | 494 kts | 67° |
| 2026-05-06 03:57 | 31.01993 | 123.06561 | 39293 ft | 495 kts | 67° |
| 2026-05-06 03:57 | 31.03085 | 123.10424 | 39458 ft | 496 kts | 68° |
| 2026-05-06 03:58 | 31.04147 | 123.14197 | 39627 ft | 497 kts | 68° |
| 2026-05-06 03:58 | 31.05225 | 123.18033 | 39778 ft | 497 kts | 68° |
| 2026-05-06 03:58 | 31.06302 | 123.21872 | 39940 ft | 498 kts | 68° |
| 2026-05-06 03:58 | 31.07378 | 123.25711 | 40104 ft | 499 kts | 68° |
| 2026-05-06 03:59 | 31.08456 | 123.29566 | 40250 ft | 500 kts | 68° |
| 2026-05-06 03:59 | 31.09534 | 123.33423 | 40400 ft | 501 kts | 68° |
| 2026-05-06 03:59 | 31.10613 | 123.37288 | 40559 ft | 501 kts | 68° |
| 2026-05-06 03:59 | 31.11691 | 123.41157 | 40698 ft | 502 kts | 68° |
| 2026-05-06 04:00 | 31.12771 | 123.45035 | 40846 ft | 503 kts | 68° |
| 2026-05-06 04:00 | 31.13852 | 123.48921 | 40998 ft | 503 kts | 68° |
| 2026-05-06 04:00 | 31.16014 | 123.56712 | 41088 ft | 505 kts | 69° |
| 2026-05-06 04:01 | 31.18170 | 123.64504 | 41088 ft | 505 kts | 69° |
| 2026-05-06 04:01 | 31.20309 | 123.72256 | 41087 ft | 505 kts | 69° |
| 2026-05-06 04:02 | 31.22461 | 123.80071 | 41088 ft | 505 kts | 69° |
| 2026-05-06 04:02 | 31.24611 | 123.87899 | 41086 ft | 505 kts | 69° |
| 2026-05-06 04:03 | 31.26756 | 123.95732 | 41089 ft | 506 kts | 69° |
| 2026-05-06 04:03 | 31.28897 | 124.03568 | 41085 ft | 506 kts | 69° |
| 2026-05-06 04:04 | 31.31060 | 124.11411 | 41092 ft | 507 kts | 69° |
| 2026-05-06 04:04 | 31.33198 | 124.19201 | 41095 ft | 507 kts | 69° |
| 2026-05-06 04:05 | 31.35334 | 124.27058 | 41088 ft | 507 kts | 69° |
| 2026-05-06 04:05 | 31.37463 | 124.34941 | 41094 ft | 508 kts | 70° |
| 2026-05-06 04:06 | 31.39588 | 124.42829 | 41092 ft | 509 kts | 70° |
| 2026-05-06 04:06 | 31.41716 | 124.50749 | 41095 ft | 510 kts | 70° |
| 2026-05-06 04:07 | 31.43843 | 124.58684 | 41096 ft | 511 kts | 70° |
| 2026-05-06 04:07 | 31.45966 | 124.66627 | 41098 ft | 512 kts | 70° |
| 2026-05-06 04:08 | 31.48092 | 124.74603 | 41095 ft | 513 kts | 70° |
| 2026-05-06 04:08 | 31.50205 | 124.82553 | 41096 ft | 514 kts | 70° |
| 2026-05-06 04:09 | 31.52332 | 124.90578 | 41093 ft | 516 kts | 70° |
| 2026-05-06 04:09 | 31.54458 | 124.98623 | 41097 ft | 517 kts | 70° |
| 2026-05-06 04:10 | 31.56587 | 125.06698 | 41099 ft | 519 kts | 71° |
| 2026-05-06 04:10 | 31.58717 | 125.14803 | 41100 ft | 521 kts | 71° |
| 2026-05-06 04:11 | 31.60851 | 125.22947 | 41099 ft | 523 kts | 71° |
| 2026-05-06 04:11 | 31.62986 | 125.31118 | 41097 ft | 524 kts | 71° |
| 2026-05-06 04:12 | 31.65122 | 125.39316 | 41100 ft | 526 kts | 71° |
| 2026-05-06 04:12 | 31.67260 | 125.47546 | 41092 ft | 527 kts | 71° |
| 2026-05-06 04:13 | 31.69381 | 125.55733 | 41094 ft | 528 kts | 71° |
| 2026-05-06 04:13 | 31.71514 | 125.63990 | 41097 ft | 529 kts | 72° |
| 2026-05-06 04:14 | 31.73525 | 125.72319 | 41100 ft | 531 kts | 74° |
| 2026-05-06 04:14 | 31.75367 | 125.80729 | 41100 ft | 532 kts | 75° |
| 2026-05-06 04:15 | 31.77194 | 125.89165 | 41096 ft | 533 kts | 75° |
| 2026-05-06 04:15 | 31.79036 | 125.97612 | 41098 ft | 534 kts | 75° |
| 2026-05-06 04:16 | 31.80883 | 126.06069 | 41097 ft | 535 kts | 75° |
| 2026-05-06 04:16 | 31.82733 | 126.14552 | 41099 ft | 536 kts | 75° |
| 2026-05-06 04:17 | 31.84568 | 126.22991 | 41095 ft | 537 kts | 75° |
| 2026-05-06 04:17 | 31.86400 | 126.31516 | 41100 ft | 538 kts | 76° |
| 2026-05-06 04:18 | 31.88215 | 126.40073 | 41098 ft | 539 kts | 76° |
| 2026-05-06 04:18 | 31.90043 | 126.48636 | 41100 ft | 540 kts | 76° |
| 2026-05-06 04:19 | 31.91921 | 126.57209 | 41093 ft | 541 kts | 75° |
| 2026-05-06 04:19 | 31.93822 | 126.65785 | 41098 ft | 542 kts | 75° |
| 2026-05-06 04:20 | 31.95721 | 126.74390 | 41100 ft | 543 kts | 75° |
| 2026-05-06 04:20 | 31.97610 | 126.83005 | 41093 ft | 544 kts | 76° |
| 2026-05-06 04:21 | 31.99496 | 126.91646 | 41096 ft | 545 kts | 76° |
| 2026-05-06 04:21 | 32.01377 | 127.00297 | 41098 ft | 546 kts | 76° |
| 2026-05-06 04:22 | 32.03260 | 127.08972 | 41100 ft | 547 kts | 75° |
| 2026-05-06 04:23 | 32.07411 | 127.21490 | 41096 ft | 548 kts | 66° |
| 2026-05-06 04:23 | 32.10495 | 127.29713 | 41092 ft | 549 kts | 65° |
| 2026-05-06 04:24 | 32.13609 | 127.37942 | 41093 ft | 550 kts | 65° |
| 2026-05-06 04:24 | 32.16715 | 127.46190 | 41089 ft | 551 kts | 66° |
| 2026-05-06 04:25 | 32.19814 | 127.54465 | 41096 ft | 552 kts | 66° |
| 2026-05-06 04:25 | 32.22911 | 127.62767 | 41087 ft | 553 kts | 66° |
| 2026-05-06 04:26 | 32.25985 | 127.71027 | 41081 ft | 553 kts | 66° |
| 2026-05-06 04:26 | 32.29077 | 127.79354 | 41083 ft | 554 kts | 66° |
| 2026-05-06 04:27 | 32.32172 | 127.87708 | 41107 ft | 555 kts | 66° |
| 2026-05-06 04:27 | 32.35265 | 127.96076 | 41091 ft | 556 kts | 66° |
| 2026-05-06 04:28 | 32.38357 | 128.04465 | 41093 ft | 557 kts | 66° |
| 2026-05-06 04:28 | 32.41446 | 128.12864 | 41094 ft | 557 kts | 66° |
| 2026-05-06 04:29 | 32.44535 | 128.21286 | 41096 ft | 558 kts | 66° |
| 2026-05-06 04:29 | 32.47623 | 128.29726 | 41095 ft | 559 kts | 66° |
| 2026-05-06 04:30 | 32.50710 | 128.38185 | 41098 ft | 559 kts | 66° |
| 2026-05-06 04:30 | 32.53791 | 128.46650 | 41096 ft | 560 kts | 66° |
| 2026-05-06 04:31 | 32.56872 | 128.55136 | 41088 ft | 561 kts | 66° |
| 2026-05-06 04:31 | 32.59950 | 128.63636 | 41080 ft | 561 kts | 66° |
| 2026-05-06 04:32 | 32.63027 | 128.72151 | 41078 ft | 562 kts | 66° |
| 2026-05-06 04:32 | 32.66091 | 128.80694 | 41071 ft | 563 kts | 69° |
| 2026-05-06 04:33 | 32.68312 | 128.89538 | 41077 ft | 563 kts | 76° |
| 2026-05-06 04:33 | 32.70235 | 128.98551 | 41080 ft | 564 kts | 77° |
| 2026-05-06 04:34 | 32.72069 | 129.07597 | 41085 ft | 564 kts | 77° |
| 2026-05-06 04:34 | 32.73898 | 129.16671 | 41091 ft | 565 kts | 77° |
| 2026-05-06 04:35 | 32.75733 | 129.25747 | 41092 ft | 566 kts | 77° |
| 2026-05-06 04:35 | 32.77572 | 129.34840 | 41088 ft | 566 kts | 77° |
| 2026-05-06 04:36 | 32.79408 | 129.43950 | 41085 ft | 567 kts | 77° |
| 2026-05-06 04:36 | 32.81238 | 129.53071 | 41081 ft | 568 kts | 77° |
| 2026-05-06 04:37 | 32.83065 | 129.62214 | 41077 ft | 569 kts | 77° |
| 2026-05-06 04:37 | 32.84885 | 129.71375 | 41081 ft | 570 kts | 78° |
| 2026-05-06 04:38 | 32.86679 | 129.80546 | 41074 ft | 570 kts | 78° |
| 2026-05-06 04:38 | 32.88464 | 129.89738 | 41075 ft | 570 kts | 78° |
| 2026-05-06 04:39 | 32.89943 | 129.97380 | 41077 ft | 571 kts | 78° |
| 2026-05-06 04:39 | 32.91723 | 130.06597 | 41074 ft | 572 kts | 78° |
| 2026-05-06 04:40 | 32.93497 | 130.15824 | 41073 ft | 572 kts | 78° |
| 2026-05-06 04:40 | 32.95266 | 130.25057 | 41072 ft | 572 kts | 78° |
| 2026-05-06 04:41 | 32.97314 | 130.35799 | 41075 ft | 573 kts | 78° |
| 2026-05-06 04:41 | 32.98786 | 130.43555 | 41074 ft | 573 kts | 78° |
| 2026-05-06 04:42 | 33.00527 | 130.52765 | 41071 ft | 574 kts | 78° |
| 2026-05-06 04:42 | 33.02274 | 130.62045 | 41069 ft | 574 kts | 78° |
| 2026-05-06 04:43 | 33.04016 | 130.71338 | 41069 ft | 575 kts | 78° |
| 2026-05-06 04:43 | 33.05752 | 130.80642 | 41071 ft | 576 kts | 78° |
| 2026-05-06 04:44 | 33.07485 | 130.89973 | 41070 ft | 576 kts | 78° |
| 2026-05-06 04:44 | 33.09201 | 130.99240 | 41061 ft | 566 kts | 80° |
| 2026-05-06 04:45 | 33.10880 | 131.08348 | 41089 ft | 559 kts | 80° |
| 2026-05-06 04:45 | 33.12541 | 131.17408 | 41082 ft | 559 kts | 80° |
| 2026-05-06 04:46 | 33.14197 | 131.26478 | 41085 ft | 560 kts | 80° |
| 2026-05-06 04:46 | 33.15837 | 131.35505 | 41102 ft | 561 kts | 80° |
| 2026-05-06 04:47 | 33.17496 | 131.44664 | 41108 ft | 561 kts | 80° |
| 2026-05-06 04:47 | 33.19126 | 131.53712 | 41108 ft | 561 kts | 80° |
| 2026-05-06 04:48 | 33.20763 | 131.62834 | 41125 ft | 562 kts | 80° |
| 2026-05-06 04:48 | 33.22716 | 131.71878 | 41134 ft | 565 kts | 72° |
| 2026-05-06 04:49 | 33.25489 | 131.80663 | 41131 ft | 566 kts | 70° |
| 2026-05-06 04:49 | 33.28434 | 131.89397 | 41135 ft | 567 kts | 69° |
| 2026-05-06 04:50 | 33.31413 | 131.98118 | 41140 ft | 567 kts | 69° |
| 2026-05-06 04:50 | 33.34382 | 132.06862 | 41132 ft | 568 kts | 70° |
| 2026-05-06 04:51 | 33.37336 | 132.15623 | 41139 ft | 568 kts | 70° |
| 2026-05-06 04:51 | 33.40284 | 132.24403 | 41142 ft | 569 kts | 70° |
| 2026-05-06 04:52 | 33.43225 | 132.33192 | 41151 ft | 569 kts | 70° |
| 2026-05-06 04:52 | 33.46165 | 132.41996 | 41153 ft | 570 kts | 70° |
| 2026-05-06 04:53 | 33.49109 | 132.50806 | 41135 ft | 570 kts | 69° |
| 2026-05-06 04:53 | 33.52072 | 132.59619 | 41147 ft | 571 kts | 69° |
| 2026-05-06 04:54 | 33.55021 | 132.68472 | 41142 ft | 571 kts | 70° |
| 2026-05-06 04:54 | 33.57947 | 132.77333 | 41124 ft | 572 kts | 70° |
| 2026-05-06 04:55 | 33.60844 | 132.86146 | 41124 ft | 572 kts | 70° |
| 2026-05-06 04:55 | 33.63757 | 132.95029 | 41127 ft | 572 kts | 70° |
| 2026-05-06 04:56 | 33.66178 | 133.04111 | 41374 ft | 572 kts | 74° |
| 2026-05-06 04:56 | 33.67303 | 133.08720 | 41183 ft | 577 kts | 75° |
| 2026-05-06 04:56 | 33.68410 | 133.13364 | 41151 ft | 581 kts | 75° |
| 2026-05-06 04:57 | 33.70642 | 133.22744 | 41153 ft | 586 kts | 74° |
| 2026-05-06 04:57 | 33.72888 | 133.32146 | 41152 ft | 585 kts | 74° |
| 2026-05-06 04:58 | 33.75136 | 133.41555 | 41147 ft | 586 kts | 74° |
| 2026-05-06 04:58 | 33.77378 | 133.50950 | 41141 ft | 586 kts | 74° |
| 2026-05-06 04:59 | 33.79625 | 133.60386 | 41141 ft | 588 kts | 75° |
| 2026-05-06 04:59 | 33.81837 | 133.69780 | 41143 ft | 588 kts | 75° |
| 2026-05-06 05:00 | 33.84055 | 133.79231 | 41137 ft | 587 kts | 75° |
| 2026-05-06 05:00 | 33.86268 | 133.88693 | 41139 ft | 588 kts | 75° |
| 2026-05-06 05:01 | 33.88486 | 133.98179 | 41140 ft | 589 kts | 75° |
| 2026-05-06 05:01 | 33.90697 | 134.07666 | 41138 ft | 588 kts | 75° |
| 2026-05-06 05:02 | 33.92897 | 134.17153 | 41146 ft | 589 kts | 75° |
| 2026-05-06 05:02 | 33.95096 | 134.26661 | 41143 ft | 590 kts | 75° |
| 2026-05-06 05:03 | 33.97287 | 134.36186 | 41160 ft | 590 kts | 75° |
| 2026-05-06 05:03 | 33.99467 | 134.45715 | 41171 ft | 590 kts | 75° |
| 2026-05-06 05:04 | 34.01648 | 134.55241 | 41180 ft | 590 kts | 75° |
| 2026-05-06 05:04 | 34.03843 | 134.64771 | 41182 ft | 590 kts | 74° |
| 2026-05-06 05:05 | 34.06026 | 134.74318 | 41177 ft | 590 kts | 75° |
| 2026-05-06 05:05 | 34.08184 | 134.83863 | 41166 ft | 590 kts | 75° |
| 2026-05-06 05:06 | 34.10333 | 134.93432 | 41157 ft | 590 kts | 75° |
| 2026-05-06 05:06 | 34.12457 | 135.02926 | 41148 ft | 590 kts | 75° |
| 2026-05-06 05:07 | 34.14587 | 135.12487 | 41156 ft | 590 kts | 75° |
| 2026-05-06 05:07 | 34.16712 | 135.22058 | 41160 ft | 590 kts | 75° |
| 2026-05-06 05:08 | 34.18829 | 135.31632 | 41161 ft | 590 kts | 75° |
| 2026-05-06 05:08 | 34.20942 | 135.41220 | 41159 ft | 590 kts | 75° |
| 2026-05-06 05:09 | 34.23046 | 135.50816 | 41165 ft | 591 kts | 75° |
| 2026-05-06 05:09 | 34.25144 | 135.60427 | 41165 ft | 592 kts | 75° |
| 2026-05-06 05:10 | 34.27222 | 135.69974 | 41164 ft | 591 kts | 75° |
| 2026-05-06 05:10 | 34.29304 | 135.79583 | 41165 ft | 591 kts | 75° |
| 2026-05-06 05:11 | 34.31379 | 135.89193 | 41171 ft | 591 kts | 76° |
| 2026-05-06 05:11 | 34.33449 | 135.98818 | 41174 ft | 591 kts | 76° |
| 2026-05-06 05:12 | 34.35506 | 136.08440 | 41171 ft | 591 kts | 76° |
| 2026-05-06 05:12 | 34.37559 | 136.18076 | 41188 ft | 591 kts | 76° |
| 2026-05-06 05:13 | 34.39604 | 136.27710 | 41181 ft | 591 kts | 76° |
| 2026-05-06 05:13 | 34.41640 | 136.37352 | 41187 ft | 591 kts | 76° |
| 2026-05-06 05:14 | 34.43669 | 136.46989 | 41187 ft | 591 kts | 76° |
| 2026-05-06 05:14 | 34.45691 | 136.56643 | 41183 ft | 591 kts | 76° |
| 2026-05-06 05:15 | 34.47707 | 136.66304 | 41186 ft | 591 kts | 76° |
| 2026-05-06 05:15 | 34.49716 | 136.75978 | 41186 ft | 592 kts | 76° |
| 2026-05-06 05:16 | 34.51706 | 136.85596 | 41186 ft | 592 kts | 76° |
| 2026-05-06 05:16 | 34.53558 | 136.95312 | 41187 ft | 590 kts | 84° |
| 2026-05-06 05:16 | 34.53888 | 137.00249 | 41009 ft | 586 kts | 91° |
| 2026-05-06 05:17 | 34.54045 | 137.05181 | 41165 ft | 584 kts | 92° |
| 2026-05-06 05:17 | 34.54152 | 137.14966 | 41191 ft | 578 kts | 94° |
| 2026-05-06 05:18 | 34.54169 | 137.24710 | 41177 ft | 578 kts | 94° |
| 2026-05-06 05:18 | 34.54197 | 137.34458 | 41187 ft | 578 kts | 94° |
| 2026-05-06 05:19 | 34.54242 | 137.44216 | 41177 ft | 579 kts | 94° |
| 2026-05-06 05:19 | 34.54288 | 137.53975 | 41180 ft | 579 kts | 94° |
| 2026-05-06 05:20 | 34.54326 | 137.63735 | 41183 ft | 579 kts | 94° |
| 2026-05-06 05:20 | 34.54355 | 137.73431 | 41189 ft | 579 kts | 94° |
| 2026-05-06 05:21 | 34.54375 | 137.83198 | 41183 ft | 579 kts | 94° |
| 2026-05-06 05:21 | 34.54389 | 137.92955 | 40968 ft | 575 kts | 94° |
| 2026-05-06 05:21 | 34.54394 | 137.97801 | 40311 ft | 576 kts | 94° |
| 2026-05-06 05:22 | 34.54395 | 138.02679 | 39500 ft | 581 kts | 95° |
| 2026-05-06 05:22 | 34.54388 | 138.07608 | 38608 ft | 588 kts | 95° |
| 2026-05-06 05:22 | 34.54375 | 138.12578 | 37694 ft | 592 kts | 95° |
| 2026-05-06 05:22 | 34.54359 | 138.17581 | 37034 ft | 591 kts | 95° |
| 2026-05-06 05:23 | 34.54343 | 138.22555 | 36391 ft | 590 kts | 95° |
| 2026-05-06 05:23 | 34.54327 | 138.27532 | 35738 ft | 589 kts | 95° |
| 2026-05-06 05:23 | 34.54681 | 138.37416 | 34368 ft | 597 kts | 82° |
| 2026-05-06 05:24 | 34.55870 | 138.42257 | 33613 ft | 600 kts | 69° |
| 2026-05-06 05:24 | 34.57496 | 138.46918 | 32869 ft | 599 kts | 65° |
| 2026-05-06 05:24 | 34.59300 | 138.51472 | 32138 ft | 598 kts | 63° |
| 2026-05-06 05:24 | 34.61197 | 138.55958 | 31409 ft | 596 kts | 61° |
| 2026-05-06 05:25 | 34.63125 | 138.60409 | 30703 ft | 594 kts | 61° |
| 2026-05-06 05:25 | 34.65041 | 138.64835 | 29928 ft | 592 kts | 61° |
| 2026-05-06 05:25 | 34.66936 | 138.69269 | 29179 ft | 588 kts | 62° |
| 2026-05-06 05:25 | 34.68791 | 138.73674 | 28521 ft | 583 kts | 62° |
| 2026-05-06 05:26 | 34.70491 | 138.78113 | 27881 ft | 577 kts | 71° |
| 2026-05-06 05:26 | 34.71428 | 138.82800 | 27275 ft | 567 kts | 84° |
| 2026-05-06 05:26 | 34.71781 | 138.87531 | 26748 ft | 556 kts | 90° |
| 2026-05-06 05:26 | 34.71861 | 138.92194 | 26162 ft | 549 kts | 94° |
| 2026-05-06 05:27 | 34.71802 | 138.96804 | 25576 ft | 543 kts | 96° |
| 2026-05-06 05:27 | 34.71693 | 139.01366 | 25057 ft | 535 kts | 96° |
| 2026-05-06 05:27 | 34.71588 | 139.05863 | 24513 ft | 529 kts | 96° |
| 2026-05-06 05:27 | 34.71510 | 139.10253 | 23967 ft | 524 kts | 95° |
| 2026-05-06 05:28 | 34.71454 | 139.14660 | 23347 ft | 518 kts | 95° |
| 2026-05-06 05:28 | 34.71407 | 139.19022 | 22657 ft | 514 kts | 95° |
| 2026-05-06 05:28 | 34.71366 | 139.23352 | 21976 ft | 509 kts | 94° |
| 2026-05-06 05:28 | 34.71329 | 139.27630 | 21336 ft | 504 kts | 94° |
| 2026-05-06 05:29 | 34.71295 | 139.31857 | 20687 ft | 499 kts | 93° |
| 2026-05-06 05:29 | 34.71262 | 139.36060 | 20067 ft | 494 kts | 93° |
| 2026-05-06 05:29 | 34.71346 | 139.40201 | 19605 ft | 488 kts | 84° |
| 2026-05-06 05:29 | 34.72178 | 139.44134 | 19332 ft | 475 kts | 67° |
| 2026-05-06 05:30 | 34.73702 | 139.47635 | 19095 ft | 461 kts | 57° |
| 2026-05-06 05:30 | 34.75336 | 139.50922 | 18874 ft | 449 kts | 57° |
| 2026-05-06 05:30 | 34.76915 | 139.54138 | 18657 ft | 437 kts | 57° |
| 2026-05-06 05:30 | 34.78428 | 139.57303 | 18437 ft | 426 kts | 58° |
| 2026-05-06 05:31 | 34.79861 | 139.60358 | 18218 ft | 416 kts | 58° |
| 2026-05-06 05:31 | 34.81266 | 139.63390 | 18018 ft | 405 kts | 58° |
| 2026-05-06 05:31 | 34.82624 | 139.66342 | 17808 ft | 395 kts | 58° |
| 2026-05-06 05:31 | 34.84109 | 139.69080 | 17555 ft | 381 kts | 43° |
| 2026-05-06 05:32 | 34.86174 | 139.70946 | 17308 ft | 359 kts | 18° |
| 2026-05-06 05:32 | 34.88476 | 139.71891 | 17111 ft | 343 kts | 8° |
| 2026-05-06 05:32 | 34.90740 | 139.72651 | 16937 ft | 333 kts | 8° |
| 2026-05-06 05:32 | 34.92203 | 139.73160 | 16815 ft | 328 kts | 9° |
| 2026-05-06 05:33 | 34.95098 | 139.74215 | 16450 ft | 322 kts | 9° |
| 2026-05-06 05:33 | 34.96516 | 139.74744 | 16236 ft | 321 kts | 9° |
| 2026-05-06 05:33 | 34.98599 | 139.75764 | 15858 ft | 329 kts | 26° |
| 2026-05-06 05:33 | 35.00939 | 139.78155 | 15427 ft | 332 kts | 39° |
| 2026-05-06 05:34 | 35.02579 | 139.80122 | 15127 ft | 330 kts | 40° |
| 2026-05-06 05:34 | 35.03683 | 139.81458 | 14908 ft | 329 kts | 40° |
| 2026-05-06 05:34 | 35.05303 | 139.83413 | 14587 ft | 327 kts | 40° |
| 2026-05-06 05:34 | 35.07459 | 139.85974 | 14179 ft | 325 kts | 40° |
| 2026-05-06 05:35 | 35.09075 | 139.87888 | 13865 ft | 323 kts | 40° |
| 2026-05-06 05:35 | 35.10679 | 139.89797 | 13550 ft | 320 kts | 40° |
| 2026-05-06 05:35 | 35.11731 | 139.91052 | 13334 ft | 318 kts | 41° |
| 2026-05-06 05:35 | 35.13305 | 139.92933 | 13187 ft | 316 kts | 41° |
| 2026-05-06 05:36 | 35.14861 | 139.94802 | 12930 ft | 312 kts | 41° |
| 2026-05-06 05:36 | 35.16404 | 139.96655 | 12606 ft | 310 kts | 41° |
| 2026-05-06 05:36 | 35.17940 | 139.98494 | 12291 ft | 308 kts | 41° |
| 2026-05-06 05:36 | 35.19476 | 140.00337 | 12010 ft | 304 kts | 42° |
| 2026-05-06 05:37 | 35.20956 | 140.02115 | 11738 ft | 300 kts | 42° |
| 2026-05-06 05:37 | 35.22439 | 140.03897 | 11404 ft | 298 kts | 42° |
| 2026-05-06 05:37 | 35.23912 | 140.05668 | 11131 ft | 295 kts | 43° |
| 2026-05-06 05:37 | 35.25368 | 140.07419 | 10849 ft | 292 kts | 43° |
| 2026-05-06 05:38 | 35.26805 | 140.09150 | 10552 ft | 289 kts | 43° |
| 2026-05-06 05:38 | 35.28229 | 140.10865 | 10283 ft | 286 kts | 43° |
| 2026-05-06 05:38 | 35.29641 | 140.12566 | 10000 ft | 283 kts | 44° |
| 2026-05-06 05:38 | 35.31037 | 140.14251 | 9663 ft | 281 kts | 44° |
| 2026-05-06 05:39 | 35.32422 | 140.15924 | 9327 ft | 279 kts | 44° |
| 2026-05-06 05:39 | 35.33799 | 140.17588 | 9065 ft | 277 kts | 44° |
| 2026-05-06 05:39 | 35.35176 | 140.19251 | 8997 ft | 278 kts | 44° |
| 2026-05-06 05:39 | 35.36615 | 140.20832 | 8995 ft | 278 kts | 34° |
| 2026-05-06 05:40 | 35.38344 | 140.21873 | 8997 ft | 277 kts | 17° |
| 2026-05-06 05:40 | 35.40219 | 140.22335 | 8997 ft | 276 kts | 4° |
| 2026-05-06 05:40 | 35.42132 | 140.22492 | 8996 ft | 275 kts | 1° |
| 2026-05-06 05:40 | 35.44004 | 140.22601 | 8996 ft | 275 kts | 1° |
| 2026-05-06 05:41 | 35.45920 | 140.22718 | 8997 ft | 275 kts | 2° |
| 2026-05-06 05:41 | 35.47832 | 140.22843 | 8994 ft | 275 kts | 2° |
| 2026-05-06 05:41 | 35.49746 | 140.22974 | 8993 ft | 275 kts | 2° |
| 2026-05-06 05:41 | 35.51654 | 140.23109 | 8993 ft | 275 kts | 2° |
| 2026-05-06 05:42 | 35.53565 | 140.23244 | 8992 ft | 275 kts | 2° |
| 2026-05-06 05:42 | 35.55473 | 140.23382 | 8989 ft | 275 kts | 2° |
| 2026-05-06 05:42 | 35.57391 | 140.23523 | 8986 ft | 275 kts | 2° |
| 2026-05-06 05:42 | 35.59304 | 140.23586 | 8985 ft | 275 kts | 355° |
| 2026-05-06 05:43 | 35.61156 | 140.23123 | 8985 ft | 273 kts | 341° |
| 2026-05-06 05:43 | 35.62960 | 140.22367 | 8985 ft | 272 kts | 339° |
| 2026-05-06 05:43 | 35.64738 | 140.21579 | 8985 ft | 272 kts | 339° |
| 2026-05-06 05:43 | 35.66518 | 140.20792 | 8983 ft | 272 kts | 339° |
| 2026-05-06 05:44 | 35.68293 | 140.19987 | 8985 ft | 272 kts | 335° |
| 2026-05-06 05:44 | 35.69891 | 140.18782 | 8982 ft | 269 kts | 316° |
| 2026-05-06 05:44 | 35.70991 | 140.16963 | 9000 ft | 265 kts | 294° |
| 2026-05-06 05:44 | 35.71669 | 140.14859 | 8985 ft | 264 kts | 287° |
| 2026-05-06 05:45 | 35.72250 | 140.12724 | 8986 ft | 263 kts | 286° |
| 2026-05-06 05:45 | 35.72833 | 140.10586 | 8985 ft | 263 kts | 286° |
| 2026-05-06 05:45 | 35.73414 | 140.08480 | 8985 ft | 263 kts | 287° |
| 2026-05-06 05:45 | 35.74016 | 140.06319 | 8902 ft | 264 kts | 287° |
| 2026-05-06 05:46 | 35.74611 | 140.04199 | 8536 ft | 265 kts | 287° |
| 2026-05-06 05:46 | 35.75217 | 140.02044 | 8270 ft | 260 kts | 287° |
| 2026-05-06 05:46 | 35.75798 | 139.99979 | 7941 ft | 258 kts | 287° |
| 2026-05-06 05:46 | 35.76382 | 139.97901 | 7620 ft | 255 kts | 286° |
| 2026-05-06 05:47 | 35.76958 | 139.95846 | 7309 ft | 253 kts | 286° |
| 2026-05-06 05:47 | 35.77532 | 139.93801 | 6975 ft | 251 kts | 286° |
| 2026-05-06 05:47 | 35.78101 | 139.91777 | 6707 ft | 248 kts | 285° |
| 2026-05-06 05:47 | 35.78661 | 139.89781 | 6434 ft | 246 kts | 285° |
| 2026-05-06 05:48 | 35.79217 | 139.87790 | 6198 ft | 246 kts | 285° |
| 2026-05-06 05:48 | 35.79766 | 139.85800 | 6090 ft | 244 kts | 284° |
| 2026-05-06 05:48 | 35.80298 | 139.83823 | 5946 ft | 243 kts | 284° |
| 2026-05-06 05:48 | 35.80828 | 139.81856 | 5828 ft | 241 kts | 284° |
| 2026-05-06 05:49 | 35.81237 | 139.79857 | 5702 ft | 241 kts | 279° |
| 2026-05-06 05:49 | 35.81549 | 139.77860 | 5644 ft | 240 kts | 278° |
| 2026-05-06 05:49 | 35.81815 | 139.75847 | 5653 ft | 235 kts | 273° |
| 2026-05-06 05:49 | 35.81634 | 139.73906 | 5691 ft | 225 kts | 248° |
| 2026-05-06 05:50 | 35.80730 | 139.72393 | 5692 ft | 219 kts | 220° |
| 2026-05-06 05:50 | 35.79464 | 139.71373 | 5590 ft | 216 kts | 212° |
| 2026-05-06 05:50 | 35.78156 | 139.70480 | 5370 ft | 215 kts | 211° |
| 2026-05-06 05:50 | 35.76845 | 139.69594 | 5063 ft | 215 kts | 211° |
| 2026-05-06 05:51 | 35.75519 | 139.68739 | 4758 ft | 216 kts | 206° |
| 2026-05-06 05:51 | 35.74040 | 139.68405 | 4439 ft | 220 kts | 180° |
| 2026-05-06 05:51 | 35.72534 | 139.68655 | 4240 ft | 216 kts | 173° |
| 2026-05-06 05:51 | 35.71065 | 139.68998 | 3973 ft | 215 kts | 172° |
| 2026-05-06 05:52 | 35.69624 | 139.69463 | 3642 ft | 214 kts | 161° |
| 2026-05-06 05:52 | 35.68313 | 139.70283 | 3196 ft | 211 kts | 153° |
| 2026-05-06 05:52 | 35.67066 | 139.71194 | 2797 ft | 204 kts | 152° |
| 2026-05-06 05:52 | 35.65872 | 139.72046 | 2497 ft | 194 kts | 153° |
| 2026-05-06 05:53 | 35.64733 | 139.72852 | 2218 ft | 183 kts | 153° |
| 2026-05-06 05:53 | 35.63670 | 139.73610 | 1966 ft | 171 kts | 153° |
| 2026-05-06 05:53 | 35.62668 | 139.74323 | 1685 ft | 161 kts | 153° |
| 2026-05-06 05:53 | 35.61732 | 139.74990 | 1440 ft | 149 kts | 153° |
| 2026-05-06 05:54 | 35.60859 | 139.75611 | 1241 ft | 142 kts | 153° |
| 2026-05-06 05:54 | 35.60020 | 139.76211 | 1014 ft | 136 kts | 153° |
| 2026-05-06 05:54 | 35.59218 | 139.76781 | 804 ft | 129 kts | 153° |
| 2026-05-06 05:54 | 35.58446 | 139.77330 | 633 ft | 128 kts | 153° |
| 2026-05-06 05:55 | 35.57693 | 139.77875 | 426 ft | 127 kts | 153° |
| 2026-05-06 05:55 | 35.56927 | 139.78431 | 234 ft | 126 kts | 152° |
| 2026-05-06 05:55 | 35.56169 | 139.78964 | 83 ft | 128 kts | 153° |
| 2026-05-06 05:55 | 35.55418 | 139.79481 | 34 ft | 108 kts | 150° |
| 2026-05-06 05:56 | 35.54992 | 139.79786 | 36 ft | 45 kts | 150° |
| 2026-05-06 05:56 | 35.54724 | 139.79921 | 33 ft | 36 kts | 172° |
| 2026-05-06 05:56 | 35.54583 | 139.79857 | 31 ft | 15 kts | 264° |
| 2026-05-06 05:56 | 35.54614 | 139.79803 | 31 ft | 7 kts | 323° |
| 2026-05-06 05:57 | 35.54673 | 139.79759 | 31 ft | 13 kts | 330° |
| 2026-05-06 05:57 | 35.54716 | 139.79663 | 29 ft | 16 kts | 250° |
| 2026-05-06 05:57 | 35.54678 | 139.79587 | 30 ft | 17 kts | 239° |
| 2026-05-06 05:57 | 35.54626 | 139.79480 | 30 ft | 20 kts | 239° |
| 2026-05-06 05:58 | 35.54552 | 139.79325 | 34 ft | 21 kts | 240° |
| 2026-05-06 05:58 | 35.54477 | 139.79166 | 42 ft | 22 kts | 240° |
| 2026-05-06 05:58 | 35.54399 | 139.78998 | 44 ft | 24 kts | 240° |
| 2026-05-06 05:58 | 35.54303 | 139.78796 | 37 ft | 30 kts | 239° |
| 2026-05-06 05:59 | 35.54187 | 139.78553 | 28 ft | 34 kts | 239° |
| 2026-05-06 05:59 | 35.54091 | 139.78350 | 28 ft | 28 kts | 239° |
| 2026-05-06 05:59 | 35.53988 | 139.78135 | 28 ft | 32 kts | 239° |
| 2026-05-06 05:59 | 35.53976 | 139.77938 | 27 ft | 20 kts | 326° |
| 2026-05-06 06:00 | 35.54106 | 139.77870 | 28 ft | 23 kts | 332° |
| 2026-05-06 06:00 | 35.54256 | 139.77761 | 28 ft | 27 kts | 330° |
| 2026-05-06 06:00 | 35.54434 | 139.77635 | 28 ft | 29 kts | 330° |
| 2026-05-06 06:00 | 35.54584 | 139.77529 | 27 ft | 16 kts | 330° |
| 2026-05-06 06:01 | 35.54640 | 139.77429 | 29 ft | 14 kts | 260° |
| 2026-05-06 06:01 | 35.54599 | 139.77321 | 30 ft | 15 kts | 240° |
| 2026-05-06 06:01 | 35.54564 | 139.77189 | 28 ft | 17 kts | 291° |
| 2026-05-06 06:01 | 35.54621 | 139.77114 | 28 ft | 7 kts | 295° |
| 2026-05-06 06:02 | 35.54606 | 139.77064 | 28 ft | 7 kts | 238° |
| 2026-05-06 06:02 | 35.54582 | 139.77016 | 29 ft | 0 kts | 239° |
| 2026-05-06 06:03 | 35.54583 | 139.77017 | 29 ft | 2 kts | 239° |
| 2026-05-06 06:03 | 35.54584 | 139.77019 | 29 ft | 0 kts | 239° |
| 2026-05-06 06:03 | 35.54583 | 139.77018 | 29 ft | 1 kts | 239° |
| 2026-05-06 06:03 | 35.54583 | 139.77017 | 29 ft | 0 kts | 239° |